Heute – Wetterdaten der letzten 3 Stunden im 5 Min. Intervall

Wetterdaten der letzten 3 Stunden im 5 Min. Intervall
DatumAussentemperaturLuftdruckLuftfeuchtigkeitWindstärke Regen
06.10.22, 19:40 13.2 °C 1029.7 hPa 73 % 0.0 km/h 1.4 mm
06.10.22, 19:35 13.4 °C 1029.7 hPa 72 % 0.0 km/h 1.4 mm
06.10.22, 19:30 13.6 °C 1029.8 hPa 72 % 0.0 km/h 1.4 mm
06.10.22, 19:25 13.8 °C 1029.7 hPa 71 % 0.0 km/h 1.4 mm
06.10.22, 19:20 13.9 °C 1029.7 hPa 70 % 0.0 km/h 1.4 mm
06.10.22, 19:15 14.2 °C 1029.8 hPa 70 % 0.0 km/h 1.4 mm
06.10.22, 19:10 14.3 °C 1029.8 hPa 69 % 0.0 km/h 1.4 mm
06.10.22, 19:05 14.7 °C 1029.7 hPa 68 % 0.0 km/h 1.4 mm
06.10.22, 18:55 15.3 °C 1029.8 hPa 65 % 0.0 km/h 1.4 mm
06.10.22, 18:50 15.7 °C 1029.7 hPa 63 % 0.0 km/h 1.4 mm
06.10.22, 18:45 16.0 °C 1029.7 hPa 62 % 0.0 km/h 1.4 mm
06.10.22, 18:40 16.4 °C 1029.6 hPa 61 % 0.0 km/h 1.4 mm
06.10.22, 18:35 16.8 °C 1029.6 hPa 60 % 0.0 km/h 1.4 mm
06.10.22, 18:30 17.0 °C 1029.6 hPa 59 % 0.0 km/h 1.4 mm
06.10.22, 18:25 17.2 °C 1029.6 hPa 59 % 0.0 km/h 1.4 mm
06.10.22, 18:20 17.2 °C 1029.7 hPa 58 % 0.0 km/h 1.4 mm
06.10.22, 18:15 17.3 °C 1029.7 hPa 58 % 3.2 km/h 1.4 mm
06.10.22, 18:10 17.4 °C 1029.7 hPa 57 % 0.0 km/h 1.4 mm
06.10.22, 18:05 17.4 °C 1029.7 hPa 58 % 0.0 km/h 1.4 mm
06.10.22, 17:55 17.5 °C 1029.6 hPa 56 % 1.8 km/h 1.4 mm
06.10.22, 17:50 17.5 °C 1029.8 hPa 56 % 0.0 km/h 1.4 mm
06.10.22, 17:45 17.4 °C 1029.7 hPa 56 % 0.0 km/h 1.4 mm
06.10.22, 17:40 17.7 °C 1029.7 hPa 55 % 5.0 km/h 1.4 mm
06.10.22, 17:35 17.6 °C 1029.7 hPa 55 % 3.2 km/h 1.4 mm
06.10.22, 17:30 17.6 °C 1029.6 hPa 54 % 0.0 km/h 1.4 mm
06.10.22, 17:25 17.7 °C 1029.7 hPa 54 % 0.0 km/h 1.4 mm
06.10.22, 17:20 17.8 °C 1029.7 hPa 54 % 1.8 km/h 1.4 mm
06.10.22, 17:15 17.8 °C 1029.7 hPa 55 % 0.0 km/h 1.4 mm
06.10.22, 17:10 17.8 °C 1029.8 hPa 55 % 1.8 km/h 1.4 mm
06.10.22, 17:05 17.9 °C 1029.8 hPa 55 % 3.2 km/h 1.4 mm
06.10.22, 16:55 17.8 °C 1029.8 hPa 58 % 3.2 km/h 1.4 mm
06.10.22, 16:50 17.7 °C 1029.8 hPa 56 % 10.1 km/h 1.4 mm
06.10.22, 16:45 17.8 °C 1029.8 hPa 56 % 1.8 km/h 1.4 mm